Time;durP1;ratioP1;P1;durP2;ratioP2;P2;SDS_P1;SDS_P2;PMS_P1;PMS_P2;Temp;Humidity;BMP_temperature;BMP_pressure;BME280_temperature;BME280_humidity;BME280_pressure;Samples;Min_cycle;Max_cycle;Signal;HPM_P1;HPM_P2
2022/10/10 00:00:46;;;;;;;8.50;3.00;;;;;;;15.57;54.32;98882.38;5299380;27;20075;-78
2022/10/10 00:03:13;;;;;;;9.13;3.05;;;;;;;15.46;54.68;98885.50;5299677;27;20063;-78
2022/10/10 00:05:41;;;;;;;8.10;2.90;;;;;;;15.36;54.73;98880.84;5299386;27;20397;-78
2022/10/10 00:08:08;;;;;;;9.32;3.17;;;;;;;15.18;55.45;98882.56;5299398;27;20400;-78
2022/10/10 00:10:35;;;;;;;10.50;3.20;;;;;;;15.28;55.14;98881.19;5299640;27;20486;-78
2022/10/10 00:13:04;;;;;;;9.48;3.12;;;;;;;15.13;55.19;98881.94;5279842;27;20106;-78
2022/10/10 00:15:31;;;;;;;9.63;3.12;;;;;;;15.01;55.52;98870.38;5299346;27;20403;-78
2022/10/10 00:17:58;;;;;;;11.98;3.40;;;;;;;15.60;53.75;98875.28;5299637;27;20061;-78
2022/10/10 00:20:25;;;;;;;9.63;3.30;;;;;;;15.44;54.20;98876.09;5299165;27;20058;-78
2022/10/10 00:22:52;;;;;;;10.93;3.90;;;;;;;14.99;55.83;98872.19;5299637;27;20396;-78
2022/10/10 00:25:19;;;;;;;10.38;3.50;;;;;;;14.43;58.33;98880.81;5299402;27;20050;-78
2022/10/10 00:27:46;;;;;;;14.27;3.67;;;;;;;15.25;55.77;98877.00;5298955;27;20058;-78
2022/10/10 00:30:13;;;;;;;9.80;3.92;;;;;;;15.31;55.32;98888.84;5299163;27;20061;-78
2022/10/10 00:32:40;;;;;;;8.27;3.47;;;;;;;15.51;55.15;98893.91;5299300;27;20048;-78
2022/10/10 00:35:07;;;;;;;10.70;3.97;;;;;;;13.89;60.04;98896.16;5298919;27;20042;-78
2022/10/10 00:37:34;;;;;;;10.70;3.80;;;;;;;14.94;56.77;98897.56;5299548;27;20073;-78
2022/10/10 00:40:03;;;;;;;12.90;4.72;;;;;;;13.86;60.72;98883.31;5299494;27;20061;-78
2022/10/10 00:42:30;;;;;;;10.52;4.20;;;;;;;13.82;60.74;98883.50;5279416;27;20451;-78
2022/10/10 00:45:35;;;;;;;15.32;4.15;;;;;;;13.79;60.92;98889.66;5299181;27;20319;-78
2022/10/10 00:48:07;;;;;;;9.32;4.12;;;;;;;13.55;61.72;98894.13;5279720;27;20060;-78
2022/10/10 00:50:42;;;;;;;14.52;4.72;;;;;;;13.62;61.11;98878.34;5299457;27;20057;-78
2022/10/10 00:53:10;;;;;;;13.05;5.07;;;;;;;13.81;60.32;98884.41;5279936;27;20052;-78
2022/10/10 00:55:37;;;;;;;12.02;4.62;;;;;;;13.68;60.71;98883.25;5279259;27;20399;-78
2022/10/10 00:58:06;;;;;;;15.65;5.20;;;;;;;13.04;63.40;98886.69;5299330;27;20061;-78
2022/10/10 01:00:32;;;;;;;13.38;5.28;;;;;;;13.05;63.28;98878.00;5279930;27;20095;-78
2022/10/10 01:02:59;;;;;;;11.48;4.82;;;;;;;12.70;64.55;98880.22;5298933;27;20049;-78
2022/10/10 01:05:26;;;;;;;10.43;4.15;;;;;;;13.49;60.99;98878.81;5298988;27;20045;-78
2022/10/10 01:07:54;;;;;;;12.57;4.37;;;;;;;14.44;58.43;98874.72;5299259;27;20088;-78
2022/10/10 01:10:21;;;;;;;17.90;4.43;;;;;;;14.51;57.85;98881.34;5280416;27;20080;-78
2022/10/10 01:13:13;;;;;;;9.52;3.65;;;;;;;13.73;60.19;98871.78;5300180;27;20068;-77
2022/10/10 01:15:53;;;;;;;10.65;3.30;;;;;;;14.43;57.60;98870.44;5300124;27;20521;-78
2022/10/10 01:18:59;;;;;;;8.95;3.70;;;;;;;14.21;57.81;98873.16;5281225;27;20080;-78
2022/10/10 01:21:32;;;;;;;8.63;3.30;;;;;;;14.01;58.60;98871.44;5300342;27;20542;-78
2022/10/10 01:24:36;;;;;;;10.10;3.45;;;;;;;14.56;56.64;98873.34;5280370;27;20101;-77
2022/10/10 01:27:07;;;;;;;10.65;3.45;;;;;;;13.54;59.94;98863.09;5300102;27;20052;-77
2022/10/10 01:29:53;;;;;;;9.35;3.20;;;;;;;14.31;57.10;98865.81;5299924;27;20065;-77
2022/10/10 01:32:54;;;;;;;10.60;3.53;;;;;;;14.17;57.46;98861.25;5280429;27;20652;-77
2022/10/10 01:35:30;;;;;;;9.38;3.37;;;;;;;14.62;55.54;98871.31;5280683;27;20049;-77
2022/10/10 01:38:23;;;;;;;7.50;2.80;;;;;;;14.08;57.44;98861.62;5280417;27;20138;-77
2022/10/10 01:40:58;;;;;;;9.70;3.00;;;;;;;14.27;56.83;98869.47;5300281;27;20057;-78
2022/10/10 01:43:25;;;;;;;7.80;2.33;;;;;;;14.38;56.64;98868.06;5281001;27;20076;-77
2022/10/10 01:45:53;;;;;;;7.78;2.58;;;;;;;13.73;57.76;98858.81;5299380;27;20071;-78
2022/10/10 01:48:24;;;;;;;7.57;2.58;;;;;;;13.00;60.81;98861.81;5300220;27;20046;-78
2022/10/10 01:51:22;;;;;;;7.62;2.70;;;;;;;13.36;59.68;98864.69;5280748;27;20065;-78
2022/10/10 01:54:06;;;;;;;7.28;2.37;;;;;;;13.62;58.95;98862.78;5300119;27;20076;-77
2022/10/10 01:56:39;;;;;;;7.12;2.37;;;;;;;13.97;57.02;98862.09;5299855;27;20057;-77
2022/10/10 01:59:28;;;;;;;7.25;2.37;;;;;;;13.92;57.59;98868.38;5299797;27;20061;-78
2022/10/10 02:02:18;;;;;;;8.98;2.10;;;;;;;13.94;57.16;98862.25;5299974;27;20107;-77
2022/10/10 02:04:52;;;;;;;8.70;2.00;;;;;;;13.56;58.62;98866.47;5280321;27;20068;-78
2022/10/10 02:07:37;;;;;;;7.32;2.50;;;;;;;13.63;58.05;98856.69;5280360;27;20097;-78
2022/10/10 02:10:06;;;;;;;8.57;2.28;;;;;;;12.99;59.89;98865.31;5280829;27;20045;-77
2022/10/10 02:12:33;;;;;;;6.80;2.42;;;;;;;13.82;57.26;98860.16;5280099;27;20158;-77
2022/10/10 02:15:13;;;;;;;4.18;1.85;;;;;;;13.71;57.94;98864.97;5280337;27;20079;-77
2022/10/10 02:17:41;;;;;;;6.50;2.40;;;;;;;13.35;58.79;98865.59;5300000;27;20053;-77
2022/10/10 02:20:10;;;;;;;6.87;2.40;;;;;;;13.52;58.44;98868.34;5299237;27;20314;-78
2022/10/10 02:22:39;;;;;;;5.65;2.00;;;;;;;13.52;58.00;98870.09;5280576;27;20061;-77
2022/10/10 02:25:06;;;;;;;8.63;2.30;;;;;;;13.88;57.30;98862.50;5280290;27;20076;-78
2022/10/10 02:27:55;;;;;;;4.72;2.20;;;;;;;13.38;58.19;98860.28;5299536;27;20064;-77
2022/10/10 02:30:23;;;;;;;7.72;2.75;;;;;;;13.85;57.38;98857.44;5276386;27;20054;-77
2022/10/10 02:32:54;;;;;;;4.65;2.10;;;;;;;14.63;55.29;98866.97;5278031;27;20077;-78
2022/10/10 02:35:24;;;;;;;6.90;2.42;;;;;;;14.31;55.90;98868.41;5276212;27;20072;-78
2022/10/10 02:37:52;;;;;;;7.03;2.42;;;;;;;13.50;58.55;98862.34;5276874;27;20060;-78
2022/10/10 02:40:21;;;;;;;8.80;2.85;;;;;;;12.78;60.94;98860.97;5276419;27;20046;-78
2022/10/10 02:42:49;;;;;;;8.43;2.42;;;;;;;11.54;66.32;98860.22;5278177;27;20054;-78
2022/10/10 02:45:18;;;;;;;6.50;2.80;;;;;;;10.87;70.18;98870.16;5276461;27;20076;-78
2022/10/10 02:47:45;;;;;;;7.05;2.83;;;;;;;10.97;69.74;98866.41;5276387;27;20053;-78
2022/10/10 02:50:12;;;;;;;9.75;2.90;;;;;;;10.91;70.72;98864.84;5276791;27;20056;-77
2022/10/10 02:52:39;;;;;;;7.57;2.80;;;;;;;12.00;66.55;98866.44;5276503;27;20073;-77
2022/10/10 02:55:06;;;;;;;6.25;2.40;;;;;;;10.78;69.94;98863.53;5277425;27;20087;-77
2022/10/10 02:57:33;;;;;;;9.27;2.15;;;;;;;12.13;65.34;98854.75;5278058;27;20056;-78
2022/10/10 03:00:00;;;;;;;6.82;2.25;;;;;;;11.97;65.11;98851.03;5278053;27;20045;-78
2022/10/10 03:02:27;;;;;;;5.80;2.20;;;;;;;12.91;61.68;98850.06;5277661;27;20062;-78
2022/10/10 03:04:54;;;;;;;7.03;2.47;;;;;;;12.70;61.98;98859.50;5277912;27;20072;-78
2022/10/10 03:07:21;;;;;;;5.75;2.42;;;;;;;13.48;59.34;98858.16;5277832;27;20061;-77
2022/10/10 03:09:48;;;;;;;7.45;2.60;;;;;;;13.30;59.50;98860.63;5277572;27;20045;-78
2022/10/10 03:12:15;;;;;;;;;;;;;;;12.80;61.19;98854.81;5278324;27;20072;-77
2022/10/10 03:14:41;;;;;;;6.18;2.60;;;;;;;13.06;60.21;98856.38;5277943;27;19980;-78
2022/10/10 03:17:08;;;;;;;8.77;3.00;;;;;;;12.65;61.77;98855.38;5277453;27;20060;-78
2022/10/10 03:19:36;;;;;;;6.35;2.03;;;;;;;12.65;61.11;98857.97;5278030;27;20046;-78
2022/10/10 03:22:03;;;;;;;6.18;2.30;;;;;;;12.74;60.82;98855.03;5276644;27;20126;-78
2022/10/10 03:24:30;;;;;;;6.22;2.20;;;;;;;12.72;61.43;98859.44;5277432;27;20058;-77
2022/10/10 03:26:57;;;;;;;6.32;2.28;;;;;;;12.63;60.91;98858.03;5278006;27;20049;-78
2022/10/10 03:29:24;;;;;;;7.18;2.45;;;;;;;13.15;59.73;98865.53;5282648;27;20217;-78
2022/10/10 03:31:51;;;;;;;9.30;2.62;;;;;;;13.62;57.78;98860.19;5299929;27;20076;-78
2022/10/10 03:34:18;;;;;;;8.75;2.80;;;;;;;13.23;58.56;98861.75;5299538;27;20057;-77
2022/10/10 03:36:45;;;;;;;5.22;2.15;;;;;;;13.10;59.58;98863.13;5299403;27;20344;-78
2022/10/10 03:39:12;;;;;;;7.93;2.58;;;;;;;12.66;60.80;98860.53;5299819;27;20055;-78
2022/10/10 03:41:39;;;;;;;7.07;2.60;;;;;;;12.93;60.40;98862.94;5299696;27;20072;-77
2022/10/10 03:44:05;;;;;;;6.97;2.62;;;;;;;13.10;59.89;98859.69;5299237;27;20058;-78
2022/10/10 03:46:32;;;;;;;;;;;;;;;12.53;61.53;98861.03;5299933;27;20063;-77
2022/10/10 03:48:59;;;;;;;5.65;2.60;;;;;;;11.99;63.24;98864.75;5299852;27;19948;-77
2022/10/10 03:51:26;;;;;;;;;;;;;;;12.19;63.05;98867.47;5299615;27;20058;-78
2022/10/10 03:53:53;;;;;;;6.40;2.58;;;;;;;11.39;66.16;98866.78;5299631;27;19964;-78
2022/10/10 03:56:20;;;;;;;8.13;2.95;;;;;;;11.01;68.37;98870.56;5299596;27;20067;-78
2022/10/10 03:58:47;;;;;;;;;;;;;;;11.46;66.92;98867.38;5299568;27;20055;-78
2022/10/10 04:01:13;;;;;;;10.35;3.33;;;;;;;11.86;65.33;98867.75;5299751;27;19960;-78
2022/10/10 04:03:40;;;;;;;10.02;3.60;;;;;;;10.95;69.85;98866.47;5299774;27;20075;-77
2022/10/10 04:06:07;;;;;;;;;;;;;;;10.55;73.16;98865.97;5279865;27;20057;-77
2022/10/10 04:08:34;;;;;;;10.02;3.50;;;;;;;10.50;72.58;98873.00;5280341;27;19953;-78
2022/10/10 04:11:01;;;;;;;;;;;;;;;11.53;68.41;98864.56;5299972;27;20052;-77
2022/10/10 04:13:28;;;;;;;9.88;3.75;;;;;;;11.12;68.99;98865.91;5299280;27;19968;-77
2022/10/10 04:15:55;;;;;;;8.77;3.20;;;;;;;11.52;66.66;98864.63;5299312;27;20049;-77
2022/10/10 04:18:23;;;;;;;9.68;3.40;;;;;;;12.11;64.35;98859.97;5280077;27;20049;-77
2022/10/10 04:20:50;;;;;;;11.57;3.78;;;;;;;11.84;65.31;98863.53;5280297;27;20057;-77
2022/10/10 04:23:17;;;;;;;8.48;3.30;;;;;;;12.05;64.67;98859.38;5299563;27;20400;-77
2022/10/10 04:25:44;;;;;;;8.77;3.75;;;;;;;11.77;65.14;98860.28;5298921;27;20056;-77
2022/10/10 04:28:12;;;;;;;9.02;3.70;;;;;;;12.05;64.84;98856.78;5299706;27;20094;-78
2022/10/10 04:30:40;;;;;;;10.93;3.70;;;;;;;12.22;64.32;98856.16;5299216;27;20061;-78
2022/10/10 04:33:07;;;;;;;10.25;3.25;;;;;;;12.62;62.69;98860.69;5279646;27;20471;-78
2022/10/10 04:35:34;;;;;;;7.97;3.08;;;;;;;11.74;66.10;98844.88;5279829;27;20054;-78
2022/10/10 04:38:03;;;;;;;9.75;3.50;;;;;;;11.36;67.61;98843.59;5299701;27;20399;-78
2022/10/10 04:40:30;;;;;;;10.02;3.50;;;;;;;10.99;70.17;98849.13;5299092;27;20053;-78
2022/10/10 04:42:57;;;;;;;10.57;3.75;;;;;;;11.38;69.04;98846.12;5299085;27;20057;-78
2022/10/10 04:45:25;;;;;;;9.60;3.62;;;;;;;11.15;69.52;98849.47;5299319;27;20067;-78
2022/10/10 04:47:53;;;;;;;9.98;4.22;;;;;;;10.88;71.27;98853.78;5299202;27;20097;-77
2022/10/10 04:50:20;;;;;;;12.55;4.18;;;;;;;11.91;67.37;98852.09;5280058;27;20110;-77
2022/10/10 04:52:47;;;;;;;11.30;4.00;;;;;;;11.77;66.86;98854.28;5299279;27;20053;-78
2022/10/10 04:55:15;;;;;;;12.88;4.35;;;;;;;10.91;69.50;98858.84;5298780;27;20052;-78
2022/10/10 04:57:41;;;;;;;10.95;4.18;;;;;;;11.18;68.11;98863.16;5299448;27;20045;-77
2022/10/10 05:00:09;;;;;;;11.57;4.30;;;;;;;11.45;66.70;98863.13;5279995;27;20379;-78
2022/10/10 05:02:36;;;;;;;12.15;4.03;;;;;;;11.25;67.53;98863.78;5299044;27;20067;-77
2022/10/10 05:05:03;;;;;;;;;;;;;;;11.10;69.32;98867.69;5299406;27;20061;-78
2022/10/10 05:07:30;;;;;;;9.80;3.83;;;;;;;11.13;68.61;98861.59;5298970;27;19952;-78
2022/10/10 05:09:56;;;;;;;;;;;;;;;11.74;66.84;98859.56;5299675;27;20073;-77
2022/10/10 05:12:24;;;;;;;9.85;3.85;;;;;;;10.81;70.35;98866.03;5299396;27;20310;-77
2022/10/10 05:14:51;;;;;;;14.27;4.30;;;;;;;11.11;68.76;98866.81;5298618;27;20053;-77
2022/10/10 05:17:18;;;;;;;;;;;;;;;11.37;68.07;98868.53;5299481;27;20048;-77
2022/10/10 05:19:45;;;;;;;9.73;3.87;;;;;;;11.48;67.37;98863.88;5299232;27;20514;-77
2022/10/10 05:22:11;;;;;;;9.57;4.20;;;;;;;10.87;70.50;98873.59;5298862;27;20061;-78
2022/10/10 05:24:39;;;;;;;;;;;;;;;10.63;72.44;98867.44;5299355;27;20057;-78
2022/10/10 05:27:06;;;;;;;9.68;3.95;;;;;;;10.18;74.68;98868.72;5299452;27;19952;-78
2022/10/10 05:29:32;;;;;;;;;;;;;;;10.03;75.64;98875.16;5298777;27;20061;-78
2022/10/10 05:31:59;;;;;;;9.25;4.03;;;;;;;10.05;75.80;98865.63;5299219;27;20043;-77
2022/10/10 05:34:26;;;;;;;10.88;3.80;;;;;;;11.08;71.59;98876.41;5298790;27;20072;-78
2022/10/10 05:36:55;;;;;;;13.13;4.50;;;;;;;11.42;69.60;98873.56;5279385;27;20053;-78
2022/10/10 05:39:23;;;;;;;17.83;4.22;;;;;;;12.37;66.55;98865.94;5299242;27;20058;-77
2022/10/10 05:41:50;;;;;;;14.98;4.00;;;;;;;11.69;69.32;98857.13;5299158;27;20075;-77
2022/10/10 05:44:16;;;;;;;10.00;4.07;;;;;;;12.49;67.25;98869.81;5298428;27;20053;-78
2022/10/10 05:46:43;;;;;;;8.80;3.55;;;;;;;12.16;68.89;98867.56;5299166;27;20093;-78
2022/10/10 05:49:10;;;;;;;9.60;3.20;;;;;;;12.39;67.91;98869.31;5299022;27;20115;-77
2022/10/10 05:51:37;;;;;;;10.40;3.75;;;;;;;11.25;70.79;98872.37;5298464;27;20061;-77
2022/10/10 05:54:04;;;;;;;;;;;;;;;10.42;76.16;98871.50;5299039;27;20091;-77
2022/10/10 05:56:31;;;;;;;11.18;3.72;;;;;;;10.55;76.24;98866.81;5299882;27;19952;-77
2022/10/10 05:58:58;;;;;;;10.68;3.80;;;;;;;9.79;80.60;98861.22;5299722;27;20109;-78
2022/10/10 06:01:25;;;;;;;11.10;4.20;;;;;;;10.43;79.12;98872.34;5300136;27;20079;-78
2022/10/10 06:03:54;;;;;;;;;;;;;;;11.01;76.37;98871.41;5300113;27;20063;-79
2022/10/10 06:06:22;;;;;;;11.20;4.30;;;;;;;10.62;78.04;98865.72;5300019;27;20224;-76
2022/10/10 06:08:49;;;;;;;11.75;4.37;;;;;;;10.49;78.89;98873.87;5280625;27;20368;-80
2022/10/10 06:11:18;;;;;;;;;;;;;;;10.79;78.89;98872.13;5299997;27;20064;-82
2022/10/10 06:13:48;;;;;;;10.38;3.85;;;;;;;10.71;78.53;98875.78;5299984;27;20020;-80
2022/10/10 06:16:15;;;;;;;10.45;5.05;;;;;;;11.75;73.65;98872.44;5299841;27;20058;-82
2022/10/10 06:18:43;;;;;;;11.80;4.15;;;;;;;12.24;71.18;98864.72;5299592;27;20094;-80
2022/10/10 06:21:11;;;;;;;10.25;3.95;;;;;;;11.80;73.02;98868.00;5300116;27;20068;-77
2022/10/10 06:23:38;;;;;;;11.12;4.72;;;;;;;12.49;71.15;98869.81;5280600;27;20054;-77
2022/10/10 06:26:05;;;;;;;11.10;3.65;;;;;;;12.21;71.80;98865.66;5298812;27;20053;-77
2022/10/10 06:28:32;;;;;;;10.80;3.42;;;;;;;12.68;70.85;98863.91;5300165;27;20060;-77
2022/10/10 06:31:01;;;;;;;9.25;3.83;;;;;;;12.06;73.07;98868.81;5299688;27;20077;-77
2022/10/10 06:33:28;;;;;;;11.77;3.70;;;;;;;11.98;72.38;98848.38;5299363;27;20388;-77
2022/10/10 06:35:55;;;;;;;11.48;4.10;;;;;;;12.49;71.42;98862.06;5299019;27;20057;-78
2022/10/10 06:38:22;;;;;;;13.60;4.93;;;;;;;12.08;73.60;98861.84;5307143;27;20033;-79
2022/10/10 06:40:49;;;;;;;11.20;4.28;;;;;;;12.43;71.77;98861.38;5304248;27;20115;-79
2022/10/10 06:43:16;;;;;;;11.23;4.60;;;;;;;12.89;70.84;98861.38;5299641;27;20045;-79
2022/10/10 06:45:45;;;;;;;10.45;3.62;;;;;;;13.62;67.66;98861.03;5299412;27;20045;-78
2022/10/10 06:48:13;;;;;;;10.65;3.10;;;;;;;13.87;64.87;98866.00;5299982;27;20060;-78
2022/10/10 06:50:40;;;;;;;7.93;2.90;;;;;;;14.57;59.46;98868.13;5299902;27;20317;-79
2022/10/10 06:53:07;;;;;;;6.97;2.70;;;;;;;15.44;57.11;98869.16;5299462;27;20049;-78
2022/10/10 06:55:34;;;;;;;5.35;2.30;;;;;;;15.34;56.82;98870.50;5299610;27;20041;-79
2022/10/10 06:58:01;;;;;;;7.80;2.75;;;;;;;16.32;53.20;98863.78;5299786;27;20109;-79
2022/10/10 07:00:28;;;;;;;8.82;2.78;;;;;;;16.35;53.33;98865.37;5299337;27;20058;-79
2022/10/10 07:02:55;;;;;;;8.32;2.50;;;;;;;16.54;52.04;98873.03;5299824;27;20058;-80
2022/10/10 07:05:22;;;;;;;9.45;2.87;;;;;;;16.52;51.68;98869.69;5299458;27;20056;-80
2022/10/10 07:07:50;;;;;;;8.20;2.47;;;;;;;16.49;52.43;98863.72;5299255;27;20404;-79
2022/10/10 07:10:17;;;;;;;5.87;2.58;;;;;;;16.57;52.02;98871.09;5299569;27;20072;-79
2022/10/10 07:12:44;;;;;;;4.93;2.30;;;;;;;16.65;52.00;98868.09;5299784;27;20049;-80
2022/10/10 07:15:12;;;;;;;9.02;2.72;;;;;;;16.55;52.62;98870.34;5298856;27;20117;-78
2022/10/10 07:17:38;;;;;;;8.63;3.03;;;;;;;16.26;52.82;98877.09;5299670;27;20061;-78
2022/10/10 07:20:06;;;;;;;8.63;2.90;;;;;;;16.55;50.82;98877.31;5299646;27;20061;-78
2022/10/10 07:22:33;;;;;;;8.82;2.90;;;;;;;17.52;49.72;98879.69;5299137;27;20117;-78
2022/10/10 07:25:00;;;;;;;9.40;3.22;;;;;;;17.54;48.38;98869.16;5299333;27;20053;-78
2022/10/10 07:27:26;;;;;;;8.80;3.58;;;;;;;17.21;48.91;98877.16;5299624;27;20106;-79
2022/10/10 07:29:53;;;;;;;7.22;2.47;;;;;;;17.02;49.85;98870.41;5298817;27;20053;-79
2022/10/10 07:32:21;;;;;;;16.12;4.10;;;;;;;17.33;48.71;98879.06;5299487;27;20332;-79
2022/10/10 07:34:49;;;;;;;31.27;4.55;;;;;;;17.12;49.34;98875.94;5299154;27;20053;-79
2022/10/10 07:37:16;;;;;;;9.15;3.15;;;;;;;16.69;50.36;98861.81;5299570;27;20057;-79
2022/10/10 07:39:43;;;;;;;6.60;2.40;;;;;;;16.85;50.00;98870.47;5299165;27;20055;-80
2022/10/10 07:42:10;;;;;;;7.15;2.70;;;;;;;17.42;47.64;98880.31;5298960;27;20122;-78
2022/10/10 07:44:37;;;;;;;6.60;2.47;;;;;;;16.62;49.91;98871.72;5298515;27;20407;-78
2022/10/10 07:47:04;;;;;;;11.95;4.68;;;;;;;16.81;48.63;98870.75;5299571;27;20061;-78
2022/10/10 07:49:31;;;;;;;35.20;3.92;;;;;;;16.42;49.81;98871.94;5299147;27;20068;-78
2022/10/10 07:51:58;;;;;;;20.05;3.95;;;;;;;16.93;49.18;98865.69;5299685;27;20150;-78
2022/10/10 07:54:28;;;;;;;8.50;2.25;;;;;;;16.47;50.32;98869.91;5299256;27;20049;-78
2022/10/10 07:56:55;;;;;;;9.05;2.60;;;;;;;17.09;49.22;98860.44;5299212;27;20076;-78
2022/10/10 07:59:23;;;;;;;6.18;2.03;;;;;;;16.94;48.81;98864.75;5299342;27;20105;-78
2022/10/10 08:01:50;;;;;;;9.38;2.47;;;;;;;17.18;47.12;98870.38;5299638;27;20063;-77
2022/10/10 08:04:17;;;;;;;7.40;2.30;;;;;;;16.11;49.88;98867.50;5298917;27;20058;-77
2022/10/10 08:06:44;;;;;;;7.45;2.55;;;;;;;16.67;49.14;98872.28;5299284;27;20422;-76
2022/10/10 08:09:11;;;;;;;6.93;2.37;;;;;;;17.04;49.05;98871.16;5299611;27;20147;-77
2022/10/10 08:11:38;;;;;;;8.38;2.45;;;;;;;17.58;47.17;98871.53;5279555;27;20054;-77
2022/10/10 08:14:05;;;;;;;8.65;2.78;;;;;;;17.45;48.57;98881.00;5299211;27;20142;-77
2022/10/10 08:16:32;;;;;;;7.00;2.55;;;;;;;17.86;46.51;98875.16;5299144;27;20065;-78
2022/10/10 08:18:59;;;;;;;6.25;2.28;;;;;;;17.55;47.74;98874.31;5298593;27;20058;-77
2022/10/10 08:21:26;;;;;;;7.57;2.67;;;;;;;18.13;46.66;98865.69;5299524;27;20045;-77
2022/10/10 08:23:53;;;;;;;8.00;2.53;;;;;;;17.70;47.24;98862.19;5299430;27;20049;-78
2022/10/10 08:26:20;;;;;;;6.10;2.50;;;;;;;18.90;45.60;98867.00;5279173;27;20122;-77
2022/10/10 08:28:47;;;;;;;10.88;2.72;;;;;;;18.41;46.36;98864.00;5299567;27;20076;-78
2022/10/10 08:31:17;;;;;;;6.53;2.53;;;;;;;17.45;48.05;98854.91;5299051;27;20101;-78
2022/10/10 08:33:45;;;;;;;4.95;2.15;;;;;;;17.38;48.70;98858.78;5299397;27;20470;-77
2022/10/10 08:36:15;;;;;;;7.57;2.55;;;;;;;18.86;46.22;98862.09;5298524;27;20076;-77
2022/10/10 08:38:42;;;;;;;9.20;2.65;;;;;;;19.22;44.67;98857.09;5299035;27;20053;-77
2022/10/10 08:41:51;;;;;;;7.53;2.47;;;;;;;19.26;44.14;98865.59;5280002;27;20057;-77
2022/10/10 08:44:28;;;;;;;6.47;2.35;;;;;;;19.43;45.73;98859.25;5279619;27;20098;-78
2022/10/10 08:47:05;;;;;;;4.80;2.33;;;;;;;18.84;44.70;98858.72;5298235;27;20061;-78
2022/10/10 08:49:45;;;;;;;8.25;2.55;;;;;;;18.89;44.64;98864.50;5299481;27;20067;-77
2022/10/10 08:52:34;;;;;;;7.05;2.75;;;;;;;17.57;48.41;98859.41;5279583;27;20060;-78
2022/10/10 08:55:06;;;;;;;8.05;2.50;;;;;;;17.74;46.31;98858.44;5297808;27;20324;-77
2022/10/10 08:57:59;;;;;;;6.90;2.65;;;;;;;18.49;44.68;98859.13;5279967;27;20066;-77
2022/10/10 09:00:31;;;;;;;9.18;2.60;;;;;;;18.10;46.77;98855.44;5298819;27;20057;-77
2022/10/10 09:02:59;;;;;;;6.00;2.30;;;;;;;17.46;48.68;98853.97;5280136;27;20124;-77
2022/10/10 09:05:38;;;;;;;7.20;2.45;;;;;;;18.65;46.14;98854.66;5279472;27;20098;-77
2022/10/10 09:08:23;;;;;;;8.63;2.42;;;;;;;18.27;47.77;98864.00;5298754;27;20118;-78
2022/10/10 09:10:56;;;;;;;8.55;2.85;;;;;;;18.17;47.72;98850.66;5299253;27;20091;-78
2022/10/10 09:13:46;;;;;;;6.05;2.70;;;;;;;18.65;46.36;98853.81;5298617;27;20554;-78
2022/10/10 09:16:58;;;;;;;9.43;3.05;;;;;;;18.83;46.24;98854.44;5299123;27;20053;-78
2022/10/10 09:19:52;;;;;;;9.57;3.65;;;;;;;18.75;47.32;98863.59;5298727;27;20052;-78
2022/10/10 09:22:22;;;;;;;6.10;2.05;;;;;;;19.31;44.73;98855.66;5298703;27;20058;-78
2022/10/10 09:24:53;;;;;;;7.93;2.62;;;;;;;19.68;44.50;98854.09;5279693;27;20052;-77
2022/10/10 09:27:55;;;;;;;7.35;2.70;;;;;;;18.37;46.57;98852.88;5257046;26;20061;-77
2022/10/10 09:30:22;;;;;;;8.57;2.50;;;;;;;19.00;46.44;98847.19;5248290;27;20328;-78
2022/10/10 09:33:00;;;;;;;5.70;2.15;;;;;;;19.40;45.25;98841.13;5256588;27;20130;-78
2022/10/10 09:35:33;;;;;;;6.00;2.12;;;;;;;19.56;42.03;98842.66;5255864;27;20529;-77
2022/10/10 09:38:20;;;;;;;5.87;2.35;;;;;;;19.00;43.92;98848.94;5275557;27;20178;-78
2022/10/10 09:40:51;;;;;;;9.23;2.85;;;;;;;20.00;42.15;98837.97;5278220;27;20068;-79
2022/10/10 09:43:19;;;;;;;9.82;2.67;;;;;;;19.61;42.66;98837.13;5277956;27;20058;-79
2022/10/10 09:45:51;;;;;;;8.32;2.60;;;;;;;19.62;44.09;98841.41;5277816;27;20056;-79
2022/10/10 09:48:21;;;;;;;6.07;2.20;;;;;;;20.23;40.53;98837.22;5258495;27;20474;-78
2022/10/10 09:50:48;;;;;;;5.65;2.08;;;;;;;19.35;42.46;98841.41;5276713;27;20069;-78
2022/10/10 09:53:16;;;;;;;6.80;2.72;;;;;;;19.07;42.46;98832.78;5278260;27;20063;-77
2022/10/10 09:55:44;;;;;;;6.53;2.35;;;;;;;18.81;44.93;98830.16;5276098;27;20400;-79
2022/10/10 09:58:32;;;;;;;8.40;2.50;;;;;;;19.25;44.01;98830.75;5276665;27;20053;-78
2022/10/10 10:01:24;;;;;;;7.18;2.28;;;;;;;19.28;44.17;98819.22;5278234;27;20162;-78
2022/10/10 10:04:17;;;;;;;7.05;1.95;;;;;;;19.97;40.94;98820.69;5276336;27;20378;-78
2022/10/10 10:07:16;;;;;;;6.82;1.98;;;;;;;19.86;42.03;98815.34;5277959;27;20049;-78
2022/10/10 10:09:48;;;;;;;5.97;1.90;;;;;;;19.97;40.64;98815.44;5277957;27;20056;-78
2022/10/10 10:12:19;;;;;;;7.22;2.25;;;;;;;19.99;40.18;98815.31;5278261;27;20057;-79
2022/10/10 10:14:46;;;;;;;6.90;2.15;;;;;;;19.42;41.52;98810.47;5276485;27;20498;-79
2022/10/10 10:17:15;;;;;;;7.70;2.50;;;;;;;20.08;40.29;98807.66;5277618;27;20053;-78
2022/10/10 10:19:44;;;;;;;6.47;2.08;;;;;;;20.63;40.38;98809.06;5276705;27;20062;-78
2022/10/10 10:22:33;;;;;;;5.62;2.15;;;;;;;20.56;40.12;98807.00;5276633;27;20069;-78
2022/10/10 10:25:31;;;;;;;6.75;2.37;;;;;;;20.27;39.72;98798.53;5276066;27;20482;-79
2022/10/10 10:28:10;;;;;;;6.57;2.47;;;;;;;19.51;41.31;98788.91;5296776;27;20067;-76
2022/10/10 10:30:38;;;;;;;5.35;2.05;;;;;;;19.73;40.52;98789.16;5299433;27;20068;-76
2022/10/10 10:33:32;;;;;;;5.07;2.00;;;;;;;20.12;40.25;98793.44;5299676;27;20080;-76
2022/10/10 10:36:17;;;;;;;6.78;1.98;;;;;;;20.91;39.54;98786.06;5299084;27;20057;-79
2022/10/10 10:38:52;;;;;;;7.78;2.40;;;;;;;20.31;40.19;98785.12;5299454;27;20060;-80
2022/10/10 10:41:44;;;;;;;7.22;2.47;;;;;;;19.95;42.00;98780.66;5280098;27;20320;-79
2022/10/10 10:44:26;;;;;;;3.62;1.73;;;;;;;20.07;40.52;98778.97;5280374;27;20061;-80
2022/10/10 10:47:18;;;;;;;8.93;3.45;;;;;;;19.69;40.52;98764.13;5299831;27;20065;-79
2022/10/10 10:50:01;;;;;;;4.97;2.45;;;;;;;20.51;38.27;98767.97;5299724;27;20101;-79
2022/10/10 10:52:49;;;;;;;5.78;1.80;;;;;;;19.86;42.33;98758.56;5280174;27;20614;-79
2022/10/10 10:55:43;;;;;;;5.55;2.25;;;;;;;20.33;39.92;98762.25;5299507;27;20069;-79
2022/10/10 10:58:28;;;;;;;6.15;2.10;;;;;;;20.69;39.40;98758.78;5299308;27;20558;-79
2022/10/10 11:01:39;;;;;;;6.40;2.30;;;;;;;20.07;40.55;98752.78;5299314;27;20049;-79
2022/10/10 11:04:50;;;;;;;7.95;2.25;;;;;;;19.43;40.92;98751.94;5299777;27;20095;-79
2022/10/10 11:08:13;;;;;;;7.28;2.22;;;;;;;19.53;40.42;98755.62;5299050;27;20400;-79
2022/10/10 11:10:45;;;;;;;6.10;2.33;;;;;;;19.46;40.23;98743.87;5280419;27;20083;-80
2022/10/10 11:13:26;;;;;;;7.93;2.30;;;;;;;19.53;39.74;98747.75;5299524;27;20049;-79
2022/10/10 11:15:58;;;;;;;7.32;2.37;;;;;;;19.77;41.02;98751.34;5299493;27;20092;-79
2022/10/10 11:18:52;;;;;;;6.25;2.03;;;;;;;18.95;42.12;98735.97;5283030;27;20064;-80
2022/10/10 11:21:25;;;;;;;6.68;2.92;;;;;;;20.23;40.66;98742.91;5299503;27;20079;-79
2022/10/10 11:24:02;;;;;;;8.02;2.60;;;;;;;19.82;42.93;98741.41;5280362;27;20050;-79
2022/10/10 11:26:31;;;;;;;6.32;2.35;;;;;;;20.42;42.09;98740.66;5279596;27;20045;-80
2022/10/10 11:29:03;;;;;;;8.15;2.78;;;;;;;20.03;43.09;98735.59;5280384;27;20072;-79
2022/10/10 11:31:40;;;;;;;7.07;2.50;;;;;;;19.36;43.06;98731.44;5299688;27;20064;-79
2022/10/10 11:34:36;;;;;;;4.15;1.95;;;;;;;20.01;41.99;98725.25;5279805;27;20057;-79
2022/10/10 11:37:10;;;;;;;8.65;2.00;;;;;;;20.28;40.09;98729.44;5258565;27;20053;-79
2022/10/10 11:39:43;;;;;;;7.95;2.25;;;;;;;20.47;39.93;98724.59;5280551;26;20072;-79
2022/10/10 11:42:22;;;;;;;4.85;2.00;;;;;;;20.91;40.27;98710.84;5299374;27;20073;-80
2022/10/10 11:45:13;;;;;;;4.87;2.53;;;;;;;21.30;39.46;98714.09;5299391;27;20064;-80
2022/10/10 11:47:44;;;;;;;5.80;1.83;;;;;;;21.20;39.26;98700.78;5279412;27;20082;-79
2022/10/10 11:50:19;;;;;;;10.82;2.65;;;;;;;21.78;36.84;98713.87;5280229;27;20065;-81
2022/10/10 11:52:47;;;;;;;5.47;2.17;;;;;;;20.69;39.67;98708.97;5280356;27;20073;-80
2022/10/10 11:55:30;;;;;;;7.10;2.20;;;;;;;21.43;36.95;98708.72;5279557;27;20064;-80
2022/10/10 11:58:26;;;;;;;7.90;2.62;;;;;;;21.64;38.46;98709.69;5280243;27;20084;-80